Time;durP1;ratioP1;P1;durP2;ratioP2;P2;SDS_P1;SDS_P2;PMS_P1;PMS_P2;Temp;Humidity;BMP_temperature;BMP_pressure;BME280_temperature;BME280_humidity;BME280_pressure;Samples;Min_cycle;Max_cycle;Signal;HPM_P1;HPM_P2
2022/11/09 05:02:17;;;;;;;17.13;11.23;;;;;;;;;;5228699;23;20588;-87
2022/11/09 05:04:43;;;;;;;21.02;13.15;;;;;;;;;;5016906;28;20479;-87
2022/11/09 05:07:09;;;;;;;22.98;13.25;;;;;;;;;;5024252;28;20473;-87
2022/11/09 05:09:35;;;;;;;26.73;15.27;;;;;;;;;;5002202;28;20394;-84
2022/11/09 05:12:01;;;;;;;22.58;13.40;;;;;;;;;;5009065;28;20425;-84
2022/11/09 05:14:27;;;;;;;11.77;9.32;;;;;;;;;;4998109;28;20459;-85
2022/11/09 05:16:53;;;;;;;9.10;8.00;;;;;;;;;;4994379;28;20372;-85
2022/11/09 05:19:19;;;;;;;10.05;8.80;;;;;;;;;;5014808;28;20403;-85
2022/11/09 05:21:45;;;;;;;10.40;8.00;;;;;;;;;;5015236;28;20858;-84
2022/11/09 05:24:11;;;;;;;9.85;8.68;;;;;;;;;;4996966;28;20875;-85
2022/11/09 05:26:38;;;;;;;8.07;6.70;;;;;;;;;;5020151;28;20389;-85
2022/11/09 05:29:06;;;;;;;7.55;6.63;;;;;;;;;;5014929;28;20381;-84
2022/11/09 05:31:32;;;;;;;7.15;6.45;;;;;;;;;;4997135;28;20878;-85
2022/11/09 05:33:59;;;;;;;6.37;5.67;;;;;;;;;;5014946;28;20967;-88
2022/11/09 05:36:25;;;;;;;5.20;4.70;;;;;;;;;;5014735;28;20416;-87
2022/11/09 05:38:51;;;;;;;5.45;4.70;;;;;;;;;;5013889;28;20936;-85
2022/11/09 05:41:17;;;;;;;4.57;4.18;;;;;;;;;;5014866;28;20381;-85
2022/11/09 05:43:44;;;;;;;5.65;4.75;;;;;;;;;;5015204;28;20887;-85
2022/11/09 05:46:11;;;;;;;5.27;4.80;;;;;;;;;;5017438;28;20412;-85
2022/11/09 05:48:37;;;;;;;5.30;4.80;;;;;;;;;;5015058;28;20510;-85
2022/11/09 05:51:04;;;;;;;6.07;5.05;;;;;;;;;;5015032;28;20917;-86
2022/11/09 05:53:30;;;;;;;5.20;4.10;;;;;;;;;;5014746;28;20391;-86
2022/11/09 05:56:00;;;;;;;5.13;4.53;;;;;;;;;;5018499;28;20407;-86
2022/11/09 05:58:26;;;;;;;7.07;4.88;;;;;;;;;;5022015;28;20385;-86
2022/11/09 06:00:52;;;;;;;5.53;5.03;;;;;;;;;;5012635;28;20470;-87
2022/11/09 06:03:18;;;;;;;5.90;5.30;;;;;;;;;;4992451;28;20390;-86
2022/11/09 06:05:44;;;;;;;13.20;11.90;;;;;;;;;;5011600;28;20764;-88
2022/11/09 06:08:14;;;;;;;15.05;13.43;;;;;;;;;;5014670;28;20396;-89
2022/11/09 06:10:41;;;;;;;6.68;6.07;;;;;;;;;;5011662;28;20398;-88
2022/11/09 06:13:07;;;;;;;7.07;6.38;;;;;;;;;;5014372;28;20419;-88
2022/11/09 06:15:33;;;;;;;6.30;5.70;;;;;;;;;;5014456;28;20427;-90
2022/11/09 06:18:00;;;;;;;5.70;5.20;;;;;;;;;;5014319;28;20381;-88
2022/11/09 06:20:26;;;;;;;5.80;5.20;;;;;;;;;;5014415;28;20400;-89
2022/11/09 06:22:56;;;;;;;5.60;5.07;;;;;;;;;;5014272;28;20377;-89
2022/11/09 06:25:22;;;;;;;5.28;4.78;;;;;;;;;;5014215;28;20782;-89
2022/11/09 06:27:48;;;;;;;6.25;5.28;;;;;;;;;;5014122;28;20854;-88
2022/11/09 06:30:15;;;;;;;10.07;7.68;;;;;;;;;;5014350;28;20468;-88
2022/11/09 06:32:41;;;;;;;6.63;5.97;;;;;;;;;;5013855;28;20385;-88
2022/11/09 06:35:07;;;;;;;7.50;6.40;;;;;;;;;;5013998;28;20456;-89
2022/11/09 06:37:33;;;;;;;6.78;6.18;;;;;;;;;;4996311;28;20882;-89
2022/11/09 06:39:59;;;;;;;6.60;6.00;;;;;;;;;;5014168;28;20385;-88
2022/11/09 06:42:25;;;;;;;6.68;6.07;;;;;;;;;;5023836;28;20463;-88
2022/11/09 06:44:51;;;;;;;6.90;6.30;;;;;;;;;;5017405;28;20503;-89
2022/11/09 06:47:17;;;;;;;7.40;6.70;;;;;;;;;;5013549;28;20385;-89
2022/11/09 06:49:43;;;;;;;7.47;6.45;;;;;;;;;;5013746;28;20391;-89
2022/11/09 06:52:09;;;;;;;6.70;6.10;;;;;;;;;;5013656;28;20380;-90
2022/11/09 06:54:35;;;;;;;6.25;5.68;;;;;;;;;;5013728;28;20381;-89
2022/11/09 06:57:01;;;;;;;6.40;5.80;;;;;;;;;;4995922;28;20401;-90
2022/11/09 06:59:27;;;;;;;6.43;5.90;;;;;;;;;;5013890;28;20423;-88
2022/11/09 07:01:53;;;;;;;7.88;7.18;;;;;;;;;;5013006;28;20409;-88
2022/11/09 07:04:19;;;;;;;9.05;8.23;;;;;;;;;;5013400;28;20388;-88
2022/11/09 07:06:45;;;;;;;7.72;6.90;;;;;;;;;;5024308;28;20518;-83
2022/11/09 07:09:12;;;;;;;8.27;7.47;;;;;;;;;;5013209;28;20392;-82
2022/11/09 07:11:38;;;;;;;7.28;6.65;;;;;;;;;;5013412;28;20381;-83
2022/11/09 07:14:04;;;;;;;8.45;7.70;;;;;;;;;;5013205;28;20436;-83
2022/11/09 07:16:30;;;;;;;8.23;7.53;;;;;;;;;;4995518;28;20866;-83
2022/11/09 07:18:56;;;;;;;9.60;8.70;;;;;;;;;;5013274;28;20858;-83
2022/11/09 07:21:23;;;;;;;8.70;8.00;;;;;;;;;;5027663;28;20794;-83
2022/11/09 07:23:49;;;;;;;9.07;8.27;;;;;;;;;;5021111;28;20858;-83
2022/11/09 07:26:16;;;;;;;10.52;8.23;;;;;;;;;;5002111;28;20458;-82
2022/11/09 07:28:42;;;;;;;9.07;7.55;;;;;;;;;;5014933;28;20476;-83
2022/11/09 07:31:09;;;;;;;8.02;7.32;;;;;;;;;;5012535;28;20412;-82
2022/11/09 07:33:35;;;;;;;7.43;6.75;;;;;;;;;;5013029;28;20389;-83
2022/11/09 07:36:01;;;;;;;7.70;7.10;;;;;;;;;;5017918;28;20397;-83
2022/11/09 07:38:28;;;;;;;7.45;6.85;;;;;;;;;;5021957;28;20785;-83
2022/11/09 07:40:54;;;;;;;7.90;7.20;;;;;;;;;;5012759;28;20389;-83
2022/11/09 07:43:20;;;;;;;8.00;7.30;;;;;;;;;;5012723;28;20889;-83
2022/11/09 07:45:46;;;;;;;8.43;7.63;;;;;;;;;;5012577;28;20408;-83
2022/11/09 07:48:12;;;;;;;8.60;7.88;;;;;;;;;;5013667;28;20411;-84
2022/11/09 07:50:39;;;;;;;8.93;8.05;;;;;;;;;;5019832;28;20434;-83
2022/11/09 07:53:06;;;;;;;8.80;8.00;;;;;;;;;;5014391;28;20404;-83
2022/11/09 07:55:33;;;;;;;8.90;8.13;;;;;;;;;;5034412;28;20543;-83
2022/11/09 07:58:00;;;;;;;8.18;7.47;;;;;;;;;;5025190;28;20391;-83
2022/11/09 08:00:27;;;;;;;9.88;9.05;;;;;;;;;;5012149;28;20385;-83
2022/11/09 08:02:53;;;;;;;9.32;8.52;;;;;;;;;;5008964;28;20396;-83
2022/11/09 08:05:19;;;;;;;9.15;8.45;;;;;;;;;;5012449;28;20496;-83
2022/11/09 08:07:45;;;;;;;12.88;11.63;;;;;;;;;;5013053;28;20458;-83
2022/11/09 08:10:12;;;;;;;13.85;12.40;;;;;;;;;;5015715;28;20432;-83
2022/11/09 08:12:38;;;;;;;11.30;10.20;;;;;;;;;;5012265;28;20389;-83
2022/11/09 08:15:04;;;;;;;12.20;10.75;;;;;;;;;;5012483;28;20409;-83
2022/11/09 08:17:31;;;;;;;10.18;9.15;;;;;;;;;;5005776;28;20882;-83
2022/11/09 08:19:57;;;;;;;10.70;8.87;;;;;;;;;;4994668;28;20920;-84
2022/11/09 08:22:23;;;;;;;10.45;9.40;;;;;;;;;;5012302;28;20389;-83
2022/11/09 08:24:49;;;;;;;10.02;9.00;;;;;;;;;;5012191;28;20893;-83
2022/11/09 08:27:15;;;;;;;8.60;7.90;;;;;;;;;;5012023;28;20408;-83
2022/11/09 08:29:41;;;;;;;9.73;8.82;;;;;;;;;;5012166;28;20455;-83
2022/11/09 08:32:07;;;;;;;10.57;9.45;;;;;;;;;;5017030;28;20412;-83
2022/11/09 08:34:33;;;;;;;10.30;9.40;;;;;;;;;;5012156;28;20384;-82
2022/11/09 08:36:59;;;;;;;8.63;8.00;;;;;;;;;;5015138;28;20385;-83
2022/11/09 08:39:25;;;;;;;10.00;9.10;;;;;;;;;;5016197;28;20388;-83
2022/11/09 08:41:51;;;;;;;8.98;8.18;;;;;;;;;;5016022;28;20388;-83
2022/11/09 08:44:17;;;;;;;10.55;9.43;;;;;;;;;;5016130;28;20381;-83
2022/11/09 08:46:43;;;;;;;9.77;8.77;;;;;;;;;;5015837;28;20400;-83
2022/11/09 08:49:09;;;;;;;8.95;8.20;;;;;;;;;;5016026;28;20388;-82
2022/11/09 08:51:35;;;;;;;9.73;8.75;;;;;;;;;;5015860;28;20385;-82
2022/11/09 08:54:01;;;;;;;9.20;8.40;;;;;;;;;;5016163;28;20396;-83
2022/11/09 08:56:27;;;;;;;9.30;8.50;;;;;;;;;;4998286;28;20393;-83
2022/11/09 08:58:53;;;;;;;9.10;8.20;;;;;;;;;;5011196;28;20386;-83
2022/11/09 09:01:20;;;;;;;7.72;7.13;;;;;;;;;;5011409;28;20415;-85
2022/11/09 09:03:46;;;;;;;31.70;18.90;;;;;;;;;;5015717;28;20431;-86
2022/11/09 09:06:12;;;;;;;36.63;21.35;;;;;;;;;;5022757;28;20414;-86
2022/11/09 09:08:38;;;;;;;40.90;23.52;;;;;;;;;;5019734;28;20381;-83
2022/11/09 09:11:04;;;;;;;15.32;12.35;;;;;;;;;;5015514;28;20392;-83
2022/11/09 09:13:31;;;;;;;16.95;12.32;;;;;;;;;;5015505;28;20446;-84
2022/11/09 09:15:57;;;;;;;8.02;7.22;;;;;;;;;;5015643;28;20774;-83
2022/11/09 09:18:23;;;;;;;9.27;8.40;;;;;;;;;;5015553;28;20384;-83
2022/11/09 09:20:49;;;;;;;11.05;9.93;;;;;;;;;;5015297;28;20388;-83
2022/11/09 09:23:16;;;;;;;12.43;11.03;;;;;;;;;;5018155;28;20776;-83
2022/11/09 09:25:42;;;;;;;21.90;17.85;;;;;;;;;;5013663;28;20412;-83
2022/11/09 09:28:08;;;;;;;27.92;21.02;;;;;;;;;;5015289;28;20381;-83
2022/11/09 09:30:34;;;;;;;19.47;17.47;;;;;;;;;;5015250;28;20377;-83
2022/11/09 09:33:01;;;;;;;21.77;17.70;;;;;;;;;;5015008;28;20933;-83
2022/11/09 09:35:27;;;;;;;15.63;14.13;;;;;;;;;;5015240;28;20380;-84
2022/11/09 09:37:54;;;;;;;14.47;13.20;;;;;;;;;;5015133;28;20419;-83
2022/11/09 09:40:22;;;;;;;17.17;15.43;;;;;;;;;;5015534;28;20865;-83
2022/11/09 09:42:49;;;;;;;14.57;13.18;;;;;;;;;;5015179;28;20476;-83
2022/11/09 09:45:19;;;;;;;14.52;13.25;;;;;;;;;;5014997;28;20448;-83
2022/11/09 09:48:11;;;;;;;14.43;12.93;;;;;;;;;;5014550;28;20393;-83
2022/11/09 09:50:43;;;;;;;12.35;11.15;;;;;;;;;;5012169;28;20403;-84
2022/11/09 09:53:28;;;;;;;10.93;9.95;;;;;;;;;;5014921;28;20381;-83
2022/11/09 09:56:01;;;;;;;10.48;9.40;;;;;;;;;;5018214;28;20385;-83
2022/11/09 09:58:29;;;;;;;13.63;12.23;;;;;;;;;;5021146;28;20520;-83
2022/11/09 10:01:03;;;;;;;12.27;11.13;;;;;;;;;;5014657;28;20435;-83
2022/11/09 10:03:29;;;;;;;12.95;11.85;;;;;;;;;;5014683;28;20385;-83
2022/11/09 10:06:04;;;;;;;13.10;11.80;;;;;;;;;;5012490;28;20916;-83
2022/11/09 10:08:49;;;;;;;11.27;10.27;;;;;;;;;;5014585;28;20384;-83
2022/11/09 10:11:32;;;;;;;10.93;9.70;;;;;;;;;;5014366;28;20401;-83
2022/11/09 10:13:58;;;;;;;12.23;11.02;;;;;;;;;;5014555;28;20389;-83
2022/11/09 10:16:47;;;;;;;11.80;10.45;;;;;;;;;;5011125;28;20396;-83
2022/11/09 10:19:12;;;;;;;11.73;10.37;;;;;;;;;;5006614;28;20411;-83
2022/11/09 10:21:57;;;;;;;12.85;11.55;;;;;;;;;;5014506;28;20385;-83
2022/11/09 10:24:23;;;;;;;10.18;9.23;;;;;;;;;;5014094;28;20384;-83
2022/11/09 10:26:54;;;;;;;9.75;8.80;;;;;;;;;;5014272;28;20801;-83
2022/11/09 10:29:31;;;;;;;10.30;9.40;;;;;;;;;;5014185;28;20385;-84
2022/11/09 10:31:58;;;;;;;11.30;10.20;;;;;;;;;;5014001;28;20384;-83
2022/11/09 10:34:28;;;;;;;12.05;10.82;;;;;;;;;;5014082;28;20471;-84
2022/11/09 10:37:01;;;;;;;10.95;9.85;;;;;;;;;;5014583;28;20862;-84
2022/11/09 10:39:32;;;;;;;10.00;9.00;;;;;;;;;;5013986;28;20385;-83
2022/11/09 10:41:58;;;;;;;8.20;7.40;;;;;;;;;;5014217;28;20381;-83
2022/11/09 10:44:24;;;;;;;7.88;7.25;;;;;;;;;;5013811;28;20392;-84
2022/11/09 10:47:03;;;;;;;6.93;6.25;;;;;;;;;;5013666;28;20418;-84
2022/11/09 10:49:29;;;;;;;7.72;6.93;;;;;;;;;;5013794;28;20377;-84
2022/11/09 10:51:55;;;;;;;8.80;8.10;;;;;;;;;;5013640;28;20385;-83
2022/11/09 10:54:26;;;;;;;8.23;7.43;;;;;;;;;;5013728;28;20377;-84
2022/11/09 10:57:04;;;;;;;6.90;6.30;;;;;;;;;;5022437;28;20373;-84
2022/11/09 10:59:39;;;;;;;6.55;5.95;;;;;;;;;;4995283;28;20484;-83
2022/11/09 11:02:27;;;;;;;6.88;6.28;;;;;;;;;;5013041;28;20412;-84
2022/11/09 11:05:02;;;;;;;8.05;7.35;;;;;;;;;;4995822;28;21005;-84
2022/11/09 11:07:28;;;;;;;7.40;6.80;;;;;;;;;;5013742;28;20373;-84
2022/11/09 11:09:54;;;;;;;8.07;7.37;;;;;;;;;;5013339;28;20431;-84
2022/11/09 11:12:20;;;;;;;7.05;6.45;;;;;;;;;;5013246;28;20841;-84
2022/11/09 11:14:47;;;;;;;8.95;8.10;;;;;;;;;;5013601;28;20520;-84
2022/11/09 11:17:27;;;;;;;7.85;7.25;;;;;;;;;;5018008;28;20381;-84
2022/11/09 11:19:53;;;;;;;6.57;6.00;;;;;;;;;;5011490;28;20463;-83
2022/11/09 11:22:26;;;;;;;7.50;6.80;;;;;;;;;;5015148;28;20738;-83
2022/11/09 11:24:59;;;;;;;9.35;8.55;;;;;;;;;;5013157;28;21041;-83
2022/11/09 11:27:31;;;;;;;8.25;7.45;;;;;;;;;;5013289;28;20389;-83
2022/11/09 11:30:11;;;;;;;6.82;6.22;;;;;;;;;;5013011;28;20385;-84
2022/11/09 11:32:37;;;;;;;5.78;5.28;;;;;;;;;;4995095;28;20389;-84
2022/11/09 11:35:05;;;;;;;6.90;6.30;;;;;;;;;;5012989;28;20478;-84
2022/11/09 11:37:40;;;;;;;6.78;6.22;;;;;;;;;;4995312;28;20969;-83
2022/11/09 11:40:15;;;;;;;7.55;6.85;;;;;;;;;;5012858;28;20440;-84
2022/11/09 11:42:41;;;;;;;7.43;6.80;;;;;;;;;;5012737;28;20511;-84
2022/11/09 11:45:16;;;;;;;7.35;6.75;;;;;;;;;;5012755;28;20867;-84
2022/11/09 11:48:02;;;;;;;7.32;6.60;;;;;;;;;;4995007;28;20894;-84
2022/11/09 11:50:32;;;;;;;6.45;5.85;;;;;;;;;;4995129;28;20858;-84
2022/11/09 11:53:07;;;;;;;8.40;7.72;;;;;;;;;;5012711;28;20377;-84
2022/11/09 11:55:32;;;;;;;6.53;6.03;;;;;;;;;;5013217;28;20413;-83
2022/11/09 11:57:58;;;;;;;10.45;9.35;;;;;;;;;;5020473;28;20471;-83
2022/11/09 12:00:24;;;;;;;8.75;8.05;;;;;;;;;;5012592;28;20396;-83
2022/11/09 12:03:09;;;;;;;6.47;5.90;;;;;;;;;;5014822;28;20758;-84
2022/11/09 12:05:54;;;;;;;8.07;7.28;;;;;;;;;;5014023;28;20412;-84
2022/11/09 12:08:30;;;;;;;8.25;7.55;;;;;;;;;;5012479;28;20917;-83
2022/11/09 12:11:09;;;;;;;7.07;6.47;;;;;;;;;;5008982;28;20869;-84
2022/11/09 12:13:59;;;;;;;7.05;6.45;;;;;;;;;;5012393;28;20384;-83
2022/11/09 12:16:41;;;;;;;6.32;5.72;;;;;;;;;;5012484;28;20467;-83
2022/11/09 12:19:29;;;;;;;7.60;6.88;;;;;;;;;;5012778;28;20400;-84
2022/11/09 12:22:01;;;;;;;7.25;6.47;;;;;;;;;;5010848;28;20887;-84
2022/11/09 12:24:27;;;;;;;8.25;7.55;;;;;;;;;;5012231;28;20395;-83
2022/11/09 12:27:01;;;;;;;6.40;5.90;;;;;;;;;;5012374;28;20385;-84
2022/11/09 12:29:39;;;;;;;6.97;6.38;;;;;;;;;;4994616;28;20392;-84
2022/11/09 12:32:24;;;;;;;6.82;6.32;;;;;;;;;;5012030;28;20389;-84
2022/11/09 12:35:08;;;;;;;6.72;6.03;;;;;;;;;;5012437;28;20785;-83
2022/11/09 12:37:37;;;;;;;7.03;6.43;;;;;;;;;;5012276;28;20389;-83
2022/11/09 12:40:13;;;;;;;6.57;6.00;;;;;;;;;;5012445;28;20797;-83
2022/11/09 12:42:44;;;;;;;6.80;6.20;;;;;;;;;;5012229;28;20391;-84
2022/11/09 12:45:28;;;;;;;7.20;6.55;;;;;;;;;;5012336;28;20806;-83
2022/11/09 12:47:56;;;;;;;5.40;5.00;;;;;;;;;;5012076;28;20383;-83
2022/11/09 12:50:24;;;;;;;5.53;5.03;;;;;;;;;;5012037;28;20385;-83
2022/11/09 12:52:51;;;;;;;5.13;4.65;;;;;;;;;;4994682;28;20377;-84
2022/11/09 12:55:37;;;;;;;5.47;5.00;;;;;;;;;;5012311;28;20385;-83
2022/11/09 12:58:03;;;;;;;7.88;6.32;;;;;;;;;;5003335;28;20455;-83
2022/11/09 13:00:35;;;;;;;6.83;5.90;;;;;;;;;;5011916;28;20389;-83
2022/11/09 13:03:06;;;;;;;6.20;5.60;;;;;;;;;;5011768;28;20399;-84
2022/11/09 13:05:37;;;;;;;6.75;6.15;;;;;;;;;;5011917;28;20420;-84
2022/11/09 13:08:05;;;;;;;6.35;5.75;;;;;;;;;;5011979;28;20384;-83
2022/11/09 13:10:33;;;;;;;7.15;6.45;;;;;;;;;;5011854;28;20447;-84
2022/11/09 13:13:12;;;;;;;5.80;5.30;;;;;;;;;;5012241;28;20385;-84
2022/11/09 13:15:39;;;;;;;6.50;6.00;;;;;;;;;;5008815;28;20421;-84
2022/11/09 13:18:05;;;;;;;7.60;6.90;;;;;;;;;;5011964;28;20712;-83
2022/11/09 13:20:34;;;;;;;6.63;6.13;;;;;;;;;;5011756;28;20392;-84
2022/11/09 13:23:06;;;;;;;6.38;5.85;;;;;;;;;;5016792;28;20480;-84
2022/11/09 13:25:32;;;;;;;5.15;4.65;;;;;;;;;;5015310;28;20416;-83
2022/11/09 13:27:58;;;;;;;5.57;4.97;;;;;;;;;;5015315;28;20389;-83
2022/11/09 13:30:24;;;;;;;5.00;4.50;;;;;;;;;;5015310;28;20385;-84
2022/11/09 13:33:05;;;;;;;4.68;4.13;;;;;;;;;;5014963;28;20866;-83
2022/11/09 13:35:40;;;;;;;4.60;4.20;;;;;;;;;;5015145;28;20392;-83
2022/11/09 13:38:15;;;;;;;4.53;4.13;;;;;;;;;;5015420;28;20380;-83
2022/11/09 13:41:07;;;;;;;4.78;4.38;;;;;;;;;;5015033;28;20388;-84
2022/11/09 13:43:38;;;;;;;5.57;4.97;;;;;;;;;;5012123;28;20734;-83
2022/11/09 13:46:13;;;;;;;5.22;4.72;;;;;;;;;;5015013;28;20440;-83
2022/11/09 13:48:49;;;;;;;6.18;4.70;;;;;;;;;;5014728;28;20384;-83
2022/11/09 13:51:34;;;;;;;5.90;5.30;;;;;;;;;;5014883;28;20475;-83
2022/11/09 13:54:01;;;;;;;6.78;6.15;;;;;;;;;;5014872;28;20889;-84
2022/11/09 13:56:27;;;;;;;7.18;6.47;;;;;;;;;;4997185;28;20392;-84
2022/11/09 13:58:54;;;;;;;7.75;7.15;;;;;;;;;;5014713;28;20393;-83
2022/11/09 14:01:24;;;;;;;6.32;5.82;;;;;;;;;;5014354;28;20409;-83
2022/11/09 14:03:51;;;;;;;6.20;5.60;;;;;;;;;;4998230;28;20387;-84
2022/11/09 14:06:17;;;;;;;5.53;5.03;;;;;;;;;;5005179;28;20416;-83
2022/11/09 14:08:44;;;;;;;7.10;5.07;;;;;;;;;;5014822;28;20850;-83
2022/11/09 14:11:21;;;;;;;5.20;4.70;;;;;;;;;;5014452;28;20380;-83
2022/11/09 14:13:50;;;;;;;4.73;4.30;;;;;;;;;;5014519;28;20381;-83
2022/11/09 14:16:19;;;;;;;4.30;3.92;;;;;;;;;;5014323;28;20888;-83
2022/11/09 14:18:54;;;;;;;4.47;4.07;;;;;;;;;;5014267;28;20381;-83
2022/11/09 14:21:20;;;;;;;4.87;4.40;;;;;;;;;;5014191;28;20814;-84
2022/11/09 14:23:47;;;;;;;4.68;4.22;;;;;;;;;;5014411;28;20424;-83
2022/11/09 14:26:18;;;;;;;4.80;4.40;;;;;;;;;;5014141;28;20414;-83
2022/11/09 14:28:44;;;;;;;4.57;4.15;;;;;;;;;;4991821;28;21006;-83
2022/11/09 14:31:23;;;;;;;6.20;5.18;;;;;;;;;;5013979;28;20424;-83
2022/11/09 14:34:03;;;;;;;6.03;5.43;;;;;;;;;;5012994;28;20782;-83
2022/11/09 14:36:30;;;;;;;5.25;4.75;;;;;;;;;;5014066;28;20389;-83
2022/11/09 14:38:58;;;;;;;4.83;4.43;;;;;;;;;;5014002;28;20517;-84
2022/11/09 14:41:25;;;;;;;5.15;4.53;;;;;;;;;;5013997;28;20448;-83
2022/11/09 14:43:51;;;;;;;4.97;4.47;;;;;;;;;;5013921;28;20387;-83
2022/11/09 14:46:19;;;;;;;6.13;4.68;;;;;;;;;;5013896;28;20408;-83
2022/11/09 14:48:52;;;;;;;5.35;4.85;;;;;;;;;;5013727;28;20431;-83
2022/11/09 14:51:19;;;;;;;6.20;4.90;;;;;;;;;;5013857;28;20387;-84
2022/11/09 14:53:45;;;;;;;6.72;5.35;;;;;;;;;;5013715;28;20818;-84
2022/11/09 14:56:13;;;;;;;5.60;5.10;;;;;;;;;;5019592;28;20384;-83
2022/11/09 14:58:41;;;;;;;5.50;5.00;;;;;;;;;;5015988;28;20388;-83
2022/11/09 15:01:08;;;;;;;5.68;5.18;;;;;;;;;;5013439;28;20401;-83
2022/11/09 15:03:34;;;;;;;5.30;4.90;;;;;;;;;;5013365;28;20460;-83
2022/11/09 15:06:10;;;;;;;5.82;5.25;;;;;;;;;;5013699;28;20409;-84
2022/11/09 15:08:39;;;;;;;8.10;6.05;;;;;;;;;;5012599;28;20798;-83
2022/11/09 15:11:05;;;;;;;6.40;5.80;;;;;;;;;;5013322;28;20866;-83
2022/11/09 15:13:33;;;;;;;6.50;5.90;;;;;;;;;;5013329;28;20850;-83
2022/11/09 15:15:59;;;;;;;7.15;6.55;;;;;;;;;;5013314;28;20389;-83
2022/11/09 15:18:28;;;;;;;6.95;6.30;;;;;;;;;;5013166;28;20418;-84
2022/11/09 15:21:32;;;;;;;7.15;6.55;;;;;;;;;;5011961;28;20381;-83
2022/11/09 15:24:03;;;;;;;7.10;6.50;;;;;;;;;;4945448;28;20457;-83
2022/11/09 15:26:32;;;;;;;7.82;7.22;;;;;;;;;;4955141;28;20470;-83
2022/11/09 15:28:58;;;;;;;8.00;6.72;;;;;;;;;;4952771;28;20397;-83
2022/11/09 15:31:27;;;;;;;7.80;7.18;;;;;;;;;;4952551;28;20417;-83
2022/11/09 15:33:54;;;;;;;10.90;7.38;;;;;;;;;;4952646;28;20401;-84
2022/11/09 15:36:31;;;;;;;7.70;7.00;;;;;;;;;;4952789;28;20484;-84
2022/11/09 15:39:15;;;;;;;8.43;7.47;;;;;;;;;;4952535;28;20393;-83
2022/11/09 15:41:41;;;;;;;9.50;8.50;;;;;;;;;;4952370;28;20402;-83
2022/11/09 15:44:07;;;;;;;9.53;8.73;;;;;;;;;;4952446;28;20571;-84
2022/11/09 15:46:36;;;;;;;8.65;7.88;;;;;;;;;;4952174;28;20426;-84
2022/11/09 15:49:16;;;;;;;9.77;7.25;;;;;;;;;;4952382;28;20405;-84
2022/11/09 15:51:43;;;;;;;9.63;7.33;;;;;;;;;;4952277;28;20760;-83
2022/11/09 15:54:09;;;;;;;8.32;7.53;;;;;;;;;;4968922;28;20782;-84
2022/11/09 15:56:35;;;;;;;8.45;7.72;;;;;;;;;;5021054;28;20448;-84
2022/11/09 15:59:01;;;;;;;9.60;8.60;;;;;;;;;;5033614;23;20443;-91
2022/11/09 16:01:28;;;;;;;8.98;8.13;;;;;;;;;;5033828;28;20383;-91
2022/11/09 16:03:54;;;;;;;9.45;8.55;;;;;;;;;;5015084;28;20873;-89
2022/11/09 16:06:23;;;;;;;9.85;8.95;;;;;;;;;;5038932;28;20418;-89
2022/11/09 16:08:50;;;;;;;10.20;9.25;;;;;;;;;;5040779;28;20766;-89
2022/11/09 16:11:16;;;;;;;10.93;9.82;;;;;;;;;;5052862;28;20378;-89
2022/11/09 16:13:42;;;;;;;9.98;9.07;;;;;;;;;;5052764;28;20386;-90
2022/11/09 16:16:10;;;;;;;9.73;8.93;;;;;;;;;;5052665;28;20378;-89
2022/11/09 16:18:36;;;;;;;9.65;8.73;;;;;;;;;;5042755;28;20408;-88
2022/11/09 16:21:12;;;;;;;9.45;8.65;;;;;;;;;;5052552;28;20415;-89
2022/11/09 16:23:38;;;;;;;10.70;9.70;;;;;;;;;;5051750;28;20723;-90
2022/11/09 16:26:08;;;;;;;9.75;8.95;;;;;;;;;;5053812;28;20465;-86
2022/11/09 16:28:35;;;;;;;9.93;9.02;;;;;;;;;;5044427;28;20463;-88
2022/11/09 16:31:02;;;;;;;9.60;8.70;;;;;;;;;;5042788;28;20440;-88
2022/11/09 16:33:28;;;;;;;9.73;8.93;;;;;;;;;;5049547;28;20393;-88
2022/11/09 16:35:54;;;;;;;10.40;9.50;;;;;;;;;;5048788;28;20396;-88
2022/11/09 16:38:20;;;;;;;11.98;10.88;;;;;;;;;;5049783;28;20866;-87
2022/11/09 16:40:46;;;;;;;11.27;10.18;;;;;;;;;;5049013;28;20396;-87
2022/11/09 16:43:12;;;;;;;10.63;9.60;;;;;;;;;;5050760;28;20392;-86
2022/11/09 16:45:44;;;;;;;12.70;11.55;;;;;;;;;;5051874;28;20405;-85
2022/11/09 16:48:11;;;;;;;13.60;12.50;;;;;;;;;;5052003;28;20378;-85
2022/11/09 16:50:37;;;;;;;14.95;13.45;;;;;;;;;;5051319;28;20386;-85
2022/11/09 16:53:03;;;;;;;14.98;13.57;;;;;;;;;;5051538;28;20373;-86
2022/11/09 16:55:29;;;;;;;13.35;12.05;;;;;;;;;;5051706;28;20801;-83
2022/11/09 16:57:56;;;;;;;13.65;12.50;;;;;;;;;;5054343;28;20385;-84
2022/11/09 17:00:22;;;;;;;14.27;13.00;;;;;;;;;;5057623;28;20389;-85
2022/11/09 17:02:48;;;;;;;15.38;14.05;;;;;;;;;;5055249;28;20381;-85
2022/11/09 17:05:14;;;;;;;15.57;14.10;;;;;;;;;;5055959;28;20772;-84
2022/11/09 17:07:40;;;;;;;17.45;15.73;;;;;;;;;;5055452;28;20378;-85
2022/11/09 17:10:07;;;;;;;14.88;13.57;;;;;;;;;;5055511;28;20516;-87
2022/11/09 17:12:33;;;;;;;14.52;13.32;;;;;;;;;;5054633;28;20389;-85
2022/11/09 17:14:59;;;;;;;14.77;13.48;;;;;;;;;;5055355;28;20404;-87
2022/11/09 17:17:25;;;;;;;13.73;12.60;;;;;;;;;;5055286;28;20949;-86
2022/11/09 17:19:51;;;;;;;14.18;13.07;;;;;;;;;;5055086;28;20385;-84
2022/11/09 17:22:17;;;;;;;13.57;12.38;;;;;;;;;;5054779;28;20389;-85
2022/11/09 17:24:43;;;;;;;13.10;11.98;;;;;;;;;;5054942;28;20389;-87
2022/11/09 17:27:10;;;;;;;13.57;12.57;;;;;;;;;;5055178;28;20378;-84
2022/11/09 17:29:36;;;;;;;14.32;13.15;;;;;;;;;;5058191;28;20469;-86
2022/11/09 17:32:03;;;;;;;14.80;13.60;;;;;;;;;;5053150;28;20405;-86
2022/11/09 17:34:29;;;;;;;14.30;12.95;;;;;;;;;;5058104;28;20398;-85
2022/11/09 17:36:55;;;;;;;14.52;13.23;;;;;;;;;;5062021;28;20406;-86
2022/11/09 17:39:21;;;;;;;14.90;13.68;;;;;;;;;;5057611;28;20746;-84
2022/11/09 17:41:48;;;;;;;14.30;13.10;;;;;;;;;;5053692;28;20386;-86
2022/11/09 17:44:14;;;;;;;14.50;13.30;;;;;;;;;;5044386;28;20470;-86
2022/11/09 17:46:40;;;;;;;17.27;15.77;;;;;;;;;;5048935;28;20438;-87
2022/11/09 17:49:06;;;;;;;16.38;14.98;;;;;;;;;;5043673;28;20378;-87
2022/11/09 17:51:31;;;;;;;15.18;13.98;;;;;;;;;;5055009;28;20420;-87
2022/11/09 17:53:58;;;;;;;15.37;14.13;;;;;;;;;;5054818;28;20379;-86
2022/11/09 17:56:24;;;;;;;16.70;15.30;;;;;;;;;;5063125;28;20403;-86
2022/11/09 17:58:50;;;;;;;16.80;15.32;;;;;;;;;;5067317;28;20480;-86
2022/11/09 18:01:18;;;;;;;17.48;15.95;;;;;;;;;;5067485;28;20382;-86
2022/11/09 18:03:45;;;;;;;17.05;15.45;;;;;;;;;;5069602;28;20398;-86
2022/11/09 18:06:12;;;;;;;16.70;15.40;;;;;;;;;;5068631;28;21105;-86
2022/11/09 18:08:38;;;;;;;16.75;15.43;;;;;;;;;;5059503;28;20385;-88
2022/11/09 18:11:04;;;;;;;16.48;14.98;;;;;;;;;;5066268;28;20380;-85
2022/11/09 18:13:30;;;;;;;16.80;15.50;;;;;;;;;;5054150;28;20373;-87
2022/11/09 18:15:56;;;;;;;18.38;16.77;;;;;;;;;;5054304;28;20440;-85
2022/11/09 18:18:24;;;;;;;19.77;17.97;;;;;;;;;;5053740;28;20858;-85
2022/11/09 18:20:50;;;;;;;20.35;18.45;;;;;;;;;;5054473;28;20390;-85
2022/11/09 18:23:16;;;;;;;20.02;18.10;;;;;;;;;;5054200;28;20381;-86
2022/11/09 18:25:42;;;;;;;19.70;17.83;;;;;;;;;;5052819;28;20423;-86
2022/11/09 18:28:08;;;;;;;20.03;18.23;;;;;;;;;;5053296;28;20463;-86
2022/11/09 18:30:40;;;;;;;20.35;18.55;;;;;;;;;;5052055;28;20395;-86
2022/11/09 18:33:06;;;;;;;21.55;19.50;;;;;;;;;;5052353;28;20448;-86
2022/11/09 18:35:32;;;;;;;21.77;19.67;;;;;;;;;;5058426;28;20405;-86
2022/11/09 18:37:58;;;;;;;21.95;19.83;;;;;;;;;;5052647;28;20392;-87
2022/11/09 18:40:24;;;;;;;22.80;20.60;;;;;;;;;;5052804;28;20878;-87
2022/11/09 18:42:50;;;;;;;22.75;20.55;;;;;;;;;;5053700;28;20401;-89
2022/11/09 18:45:16;;;;;;;23.60;21.33;;;;;;;;;;5055954;28;20420;-87
2022/11/09 18:47:42;;;;;;;23.87;21.47;;;;;;;;;;5063388;28;20963;-88
2022/11/09 18:50:08;;;;;;;22.85;20.65;;;;;;;;;;5044274;28;20905;-88
2022/11/09 18:52:35;;;;;;;22.73;20.63;;;;;;;;;;5045090;28;20419;-87
2022/11/09 18:55:02;;;;;;;20.27;18.48;;;;;;;;;;5054628;28;20471;-87
2022/11/09 18:57:28;;;;;;;21.10;19.23;;;;;;;;;;5051643;28;20429;-87
2022/11/09 18:59:54;;;;;;;22.02;19.83;;;;;;;;;;5051256;28;20400;-87
2022/11/09 19:02:20;;;;;;;21.33;19.33;;;;;;;;;;5064188;28;20775;-87
2022/11/09 19:04:47;;;;;;;19.75;17.80;;;;;;;;;;5053084;28;20471;-86
2022/11/09 19:07:13;;;;;;;19.92;18.13;;;;;;;;;;5053440;28;20392;-89
2022/11/09 19:09:41;;;;;;;18.23;16.73;;;;;;;;;;5053446;28;20401;-87
2022/11/09 19:12:08;;;;;;;17.92;16.48;;;;;;;;;;5058869;28;20384;-87
2022/11/09 19:14:42;;;;;;;17.45;16.05;;;;;;;;;;5054583;28;20858;-87
2022/11/09 19:17:12;;;;;;;17.88;16.38;;;;;;;;;;5053375;28;20386;-87
2022/11/09 19:19:39;;;;;;;19.20;17.60;;;;;;;;;;5052644;28;20862;-88
2022/11/09 19:22:09;;;;;;;15.23;14.00;;;;;;;;;;5053376;28;20783;-85
2022/11/09 19:24:35;;;;;;;16.65;15.45;;;;;;;;;;5053653;28;20404;-87
2022/11/09 19:27:01;;;;;;;14.03;13.03;;;;;;;;;;5052900;28;20890;-86
2022/11/09 19:29:27;;;;;;;17.20;15.70;;;;;;;;;;5063531;28;20423;-89
2022/11/09 19:31:53;;;;;;;16.92;15.63;;;;;;;;;;5064655;28;20404;-87
2022/11/09 19:34:20;;;;;;;17.85;16.27;;;;;;;;;;5054655;28;20377;-88
2022/11/09 19:36:47;;;;;;;19.02;17.23;;;;;;;;;;5049729;28;20425;-88
2022/11/09 19:39:14;;;;;;;18.42;17.00;;;;;;;;;;5056515;28;20415;-87
2022/11/09 19:41:40;;;;;;;17.88;16.40;;;;;;;;;;5045292;28;20397;-86
2022/11/09 19:44:11;;;;;;;17.52;16.02;;;;;;;;;;5044396;28;20496;-87